sensor_id;sensor_type;location;lat;lon;timestamp;pressure;altitude;pressure_sealevel;temperature;humidity
71774;BME280;59607;52.130;5.430;2023-04-24T00:01:08;99906.75;;;9.54;100.00
71774;BME280;59607;52.130;5.430;2023-04-24T00:03:35;99924.28;;;9.54;100.00
71774;BME280;59607;52.130;5.430;2023-04-24T00:06:12;99923.47;;;9.53;100.00
71774;BME280;59607;52.130;5.430;2023-04-24T00:08:38;99930.31;;;9.54;100.00
71774;BME280;59607;52.130;5.430;2023-04-24T00:11:12;99925.63;;;9.49;100.00
71774;BME280;59607;52.130;5.430;2023-04-24T00:13:39;99932.66;;;9.49;100.00
71774;BME280;59607;52.130;5.430;2023-04-24T00:16:06;99927.59;;;9.47;100.00
71774;BME280;59607;52.130;5.430;2023-04-24T00:18:39;99932.81;;;9.47;100.00
71774;BME280;59607;52.130;5.430;2023-04-24T00:21:06;99939.69;;;9.48;100.00
71774;BME280;59607;52.130;5.430;2023-04-24T00:23:35;99939.69;;;9.48;100.00
71774;BME280;59607;52.130;5.430;2023-04-24T00:26:02;99943.13;;;9.49;100.00
71774;BME280;59607;52.130;5.430;2023-04-24T00:28:28;99944.13;;;9.48;100.00
71774;BME280;59607;52.130;5.430;2023-04-24T00:30:56;99941.84;;;9.45;100.00
71774;BME280;59607;52.130;5.430;2023-04-24T00:33:28;99943.47;;;9.46;100.00
71774;BME280;59607;52.130;5.430;2023-04-24T00:35:54;99950.06;;;9.42;100.00
71774;BME280;59607;52.130;5.430;2023-04-24T00:38:20;99954.03;;;9.37;100.00
71774;BME280;59607;52.130;5.430;2023-04-24T00:40:50;99950.94;;;9.34;100.00
71774;BME280;59607;52.130;5.430;2023-04-24T00:43:17;99944.44;;;9.30;100.00
71774;BME280;59607;52.130;5.430;2023-04-24T00:45:43;99945.44;;;9.29;100.00
71774;BME280;59607;52.130;5.430;2023-04-24T00:48:15;99948.22;;;9.27;100.00
71774;BME280;59607;52.130;5.430;2023-04-24T00:50:42;99956.72;;;9.29;100.00
71774;BME280;59607;52.130;5.430;2023-04-24T00:53:12;99953.47;;;9.27;100.00
71774;BME280;59607;52.130;5.430;2023-04-24T00:55:39;99960.94;;;9.30;100.00
71774;BME280;59607;52.130;5.430;2023-04-24T00:58:05;99959.34;;;9.29;100.00
71774;BME280;59607;52.130;5.430;2023-04-24T01:00:32;99952.28;;;9.30;100.00
71774;BME280;59607;52.130;5.430;2023-04-24T01:03:05;99965.53;;;9.28;100.00
71774;BME280;59607;52.130;5.430;2023-04-24T01:05:32;99965.53;;;9.28;100.00
71774;BME280;59607;52.130;5.430;2023-04-24T01:08:06;99964.75;;;9.28;100.00
71774;BME280;59607;52.130;5.430;2023-04-24T01:10:33;99965.34;;;9.30;100.00
71774;BME280;59607;52.130;5.430;2023-04-24T01:13:04;99969.81;;;9.29;100.00
71774;BME280;59607;52.130;5.430;2023-04-24T01:15:38;99969.81;;;9.29;100.00
71774;BME280;59607;52.130;5.430;2023-04-24T01:18:06;99973.22;;;9.30;100.00
71774;BME280;59607;52.130;5.430;2023-04-24T01:20:33;99974.84;;;9.31;100.00
71774;BME280;59607;52.130;5.430;2023-04-24T01:23:01;99978.28;;;9.31;100.00
71774;BME280;59607;52.130;5.430;2023-04-24T01:25:36;99977.91;;;9.34;100.00
71774;BME280;59607;52.130;5.430;2023-04-24T01:28:03;99980.34;;;9.36;100.00
71774;BME280;59607;52.130;5.430;2023-04-24T01:30:33;99981.19;;;9.36;100.00
71774;BME280;59607;52.130;5.430;2023-04-24T01:33:02;99985.44;;;9.37;100.00
71774;BME280;59607;52.130;5.430;2023-04-24T01:35:29;99984.63;;;9.37;100.00
71774;BME280;59607;52.130;5.430;2023-04-24T01:37:57;99984.44;;;9.38;100.00
71774;BME280;59607;52.130;5.430;2023-04-24T01:40:29;99981.81;;;9.38;100.00
71774;BME280;59607;52.130;5.430;2023-04-24T01:42:55;99984.09;;;9.42;100.00
71774;BME280;59607;52.130;5.430;2023-04-24T01:45:27;99988.16;;;9.44;100.00
71774;BME280;59607;52.130;5.430;2023-04-24T01:47:53;99989.78;;;9.45;100.00
71774;BME280;59607;52.130;5.430;2023-04-24T01:50:26;99984.38;;;9.47;100.00
71774;BME280;59607;52.130;5.430;2023-04-24T01:52:54;99987.19;;;9.45;100.00
71774;BME280;59607;52.130;5.430;2023-04-24T01:55:21;99988.97;;;9.45;100.00
71774;BME280;59607;52.130;5.430;2023-04-24T01:57:55;99989.44;;;9.48;100.00
71774;BME280;59607;52.130;5.430;2023-04-24T02:00:23;99989.44;;;9.48;100.00
71774;BME280;59607;52.130;5.430;2023-04-24T02:02:53;99990.06;;;9.50;100.00
71774;BME280;59607;52.130;5.430;2023-04-24T02:05:22;99992.66;;;9.50;100.00
71774;BME280;59607;52.130;5.430;2023-04-24T02:07:51;99987.63;;;9.49;100.00
71774;BME280;59607;52.130;5.430;2023-04-24T02:10:23;99990.88;;;9.51;100.00
71774;BME280;59607;52.130;5.430;2023-04-24T02:12:51;99992.66;;;9.50;100.00
71774;BME280;59607;52.130;5.430;2023-04-24T02:15:31;99990.88;;;9.51;100.00
71774;BME280;59607;52.130;5.430;2023-04-24T02:18:01;99987.28;;;9.52;100.00
71774;BME280;59607;52.130;5.430;2023-04-24T02:20:30;99995.94;;;9.53;100.00
71774;BME280;59607;52.130;5.430;2023-04-24T02:22:58;99986.81;;;9.48;100.00
71774;BME280;59607;52.130;5.430;2023-04-24T02:25:30;99994.66;;;9.48;100.00
71774;BME280;59607;52.130;5.430;2023-04-24T02:27:56;99988.78;;;9.46;100.00
71774;BME280;59607;52.130;5.430;2023-04-24T02:30:26;99987.19;;;9.45;100.00
71774;BME280;59607;52.130;5.430;2023-04-24T02:32:55;99989.78;;;9.45;100.00
71774;BME280;59607;52.130;5.430;2023-04-24T02:35:22;99987.34;;;9.44;100.00
71774;BME280;59607;52.130;5.430;2023-04-24T02:37:52;99986.34;;;9.45;100.00
71774;BME280;59607;52.130;5.430;2023-04-24T02:40:19;99995.03;;;9.45;100.00
71774;BME280;59607;52.130;5.430;2023-04-24T02:42:45;99991.41;;;9.46;100.00
71774;BME280;59607;52.130;5.430;2023-04-24T02:45:12;99993.19;;;9.46;100.00
71774;BME280;59607;52.130;5.430;2023-04-24T02:47:39;99991.41;;;9.46;100.00
71774;BME280;59607;52.130;5.430;2023-04-24T02:50:09;99991.41;;;9.46;100.00
71774;BME280;59607;52.130;5.430;2023-04-24T02:52:36;99992.84;;;9.49;100.00
71774;BME280;59607;52.130;5.430;2023-04-24T02:55:07;99987.44;;;9.50;100.00
71774;BME280;59607;52.130;5.430;2023-04-24T02:57:34;99995.28;;;9.50;100.00
71774;BME280;59607;52.130;5.430;2023-04-24T03:00:05;99993.66;;;9.49;100.00
71774;BME280;59607;52.130;5.430;2023-04-24T03:02:36;99992.66;;;9.50;100.00
71774;BME280;59607;52.130;5.430;2023-04-24T03:05:12;99987.28;;;9.52;100.00
71774;BME280;59607;52.130;5.430;2023-04-24T03:07:39;99987.09;;;9.54;100.00
71774;BME280;59607;52.130;5.430;2023-04-24T03:10:08;99987.09;;;9.54;100.00
71774;BME280;59607;52.130;5.430;2023-04-24T03:12:39;99993.66;;;9.49;100.00
71774;BME280;59607;52.130;5.430;2023-04-24T03:15:07;99992.53;;;9.52;100.00
71774;BME280;59607;52.130;5.430;2023-04-24T03:17:39;99985.63;;;9.51;100.00
71774;BME280;59607;52.130;5.430;2023-04-24T03:20:06;99999.56;;;9.52;100.00
71774;BME280;59607;52.130;5.430;2023-04-24T03:22:35;99989.25;;;9.50;100.00
71774;BME280;59607;52.130;5.430;2023-04-24T03:25:05;99984.81;;;9.50;100.00
71774;BME280;59607;52.130;5.430;2023-04-24T03:27:33;99987.63;;;9.49;100.00
71774;BME280;59607;52.130;5.430;2023-04-24T03:30:07;99990.06;;;9.50;100.00
71774;BME280;59607;52.130;5.430;2023-04-24T03:32:34;99994.97;;;9.54;100.00
71774;BME280;59607;52.130;5.430;2023-04-24T03:35:10;99995.56;;;9.56;100.00
71774;BME280;59607;52.130;5.430;2023-04-24T03:37:37;99996.59;;;9.55;100.00
71774;BME280;59607;52.130;5.430;2023-04-24T03:40:12;100001.00;;;9.54;100.00
71774;BME280;59607;52.130;5.430;2023-04-24T03:42:38;100001.00;;;9.54;100.00
71774;BME280;59607;52.130;5.430;2023-04-24T03:45:11;100002.63;;;9.55;100.00
71774;BME280;59607;52.130;5.430;2023-04-24T03:47:37;99998.03;;;9.57;100.00
71774;BME280;59607;52.130;5.430;2023-04-24T03:50:04;99998.84;;;9.58;100.00
71774;BME280;59607;52.130;5.430;2023-04-24T03:52:34;99994.25;;;9.60;100.00
71774;BME280;59607;52.130;5.430;2023-04-24T03:55:01;100000.09;;;9.62;100.00
71774;BME280;59607;52.130;5.430;2023-04-24T03:57:27;99999.31;;;9.61;100.00
71774;BME280;59607;52.130;5.430;2023-04-24T03:59:56;99996.69;;;9.61;100.00
71774;BME280;59607;52.130;5.430;2023-04-24T04:02:25;100005.34;;;9.62;100.00
71774;BME280;59607;52.130;5.430;2023-04-24T04:04:51;100009.78;;;9.61;100.00
71774;BME280;59607;52.130;5.430;2023-04-24T04:07:18;100008.13;;;9.60;100.00
71774;BME280;59607;52.130;5.430;2023-04-24T04:09:50;100009.97;;;9.60;100.00
71774;BME280;59607;52.130;5.430;2023-04-24T04:12:17;100019.97;;;9.56;100.00
71774;BME280;59607;52.130;5.430;2023-04-24T04:14:46;100015.72;;;9.55;100.00
71774;BME280;59607;52.130;5.430;2023-04-24T04:17:15;100014.44;;;9.51;100.00
71774;BME280;59607;52.130;5.430;2023-04-24T04:19:42;100016.22;;;9.50;100.00
71774;BME280;59607;52.130;5.430;2023-04-24T04:22:11;100020.66;;;9.50;100.00
71774;BME280;59607;52.130;5.430;2023-04-24T04:24:37;100021.31;;;9.52;100.00
71774;BME280;59607;52.130;5.430;2023-04-24T04:27:08;100022.13;;;9.53;100.00
71774;BME280;59607;52.130;5.430;2023-04-24T04:29:49;100021.59;;;9.57;100.00
71774;BME280;59607;52.130;5.430;2023-04-24T04:32:23;100021.88;;;9.62;100.00
71774;BME280;59607;52.130;5.430;2023-04-24T04:34:49;100021.69;;;9.64;100.00
71774;BME280;59607;52.130;5.430;2023-04-24T04:37:21;100029.19;;;9.67;100.00
71774;BME280;59607;52.130;5.430;2023-04-24T04:39:50;100033.09;;;9.71;100.00
71774;BME280;59607;52.130;5.430;2023-04-24T04:42:19;100039.97;;;9.72;100.00
71774;BME280;59607;52.130;5.430;2023-04-24T04:44:51;100042.88;;;9.78;100.00
71774;BME280;59607;52.130;5.430;2023-04-24T04:47:18;100045.84;;;9.74;100.00
71774;BME280;59607;52.130;5.430;2023-04-24T04:49:54;100047.28;;;9.77;100.00
71774;BME280;59607;52.130;5.430;2023-04-24T04:52:21;100048.56;;;9.81;100.00
71774;BME280;59607;52.130;5.430;2023-04-24T04:54:51;100048.41;;;9.83;100.00
71774;BME280;59607;52.130;5.430;2023-04-24T04:57:20;100049.19;;;9.83;100.00
71774;BME280;59607;52.130;5.430;2023-04-24T04:59:47;100064.59;;;9.78;100.00
71774;BME280;59607;52.130;5.430;2023-04-24T05:02:31;100059.19;;;9.80;100.00
71774;BME280;59607;52.130;5.430;2023-04-24T05:05:00;100060.66;;;9.82;100.00
71774;BME280;59607;52.130;5.430;2023-04-24T05:07:27;100065.72;;;9.84;100.00
71774;BME280;59607;52.130;5.430;2023-04-24T05:09:53;100080.09;;;9.88;100.00
71774;BME280;59607;52.130;5.430;2023-04-24T05:12:37;100076.50;;;9.89;100.00
71774;BME280;59607;52.130;5.430;2023-04-24T05:15:06;100075.03;;;9.86;100.00
71774;BME280;59607;52.130;5.430;2023-04-24T05:17:33;100078.81;;;9.84;100.00
71774;BME280;59607;52.130;5.430;2023-04-24T05:20:04;100082.25;;;9.84;100.00
71774;BME280;59607;52.130;5.430;2023-04-24T05:22:37;100083.53;;;9.88;100.00
71774;BME280;59607;52.130;5.430;2023-04-24T05:25:09;100086.97;;;9.89;100.00
71774;BME280;59607;52.130;5.430;2023-04-24T05:27:37;100096.63;;;9.88;100.00
71774;BME280;59607;52.130;5.430;2023-04-24T05:30:09;100104.31;;;9.90;100.00
71774;BME280;59607;52.130;5.430;2023-04-24T05:32:38;100102.16;;;9.94;100.00
71774;BME280;59607;52.130;5.430;2023-04-24T05:35:08;100109.19;;;9.93;100.00
71774;BME280;59607;52.130;5.430;2023-04-24T05:37:54;100106.75;;;9.92;100.00
71774;BME280;59607;52.130;5.430;2023-04-24T05:40:20;100110.72;;;9.87;100.00
71774;BME280;59607;52.130;5.430;2023-04-24T05:42:47;100122.34;;;9.85;100.00
71774;BME280;59607;52.130;5.430;2023-04-24T05:45:13;100132.38;;;9.81;100.00
71774;BME280;59607;52.130;5.430;2023-04-24T05:47:45;100140.38;;;9.80;100.00
71774;BME280;59607;52.130;5.430;2023-04-24T05:50:12;100140.56;;;9.78;100.00
71774;BME280;59607;52.130;5.430;2023-04-24T05:52:38;100134.22;;;9.72;100.00
71774;BME280;59607;52.130;5.430;2023-04-24T05:55:09;100137.53;;;9.66;100.00
71774;BME280;59607;52.130;5.430;2023-04-24T05:57:36;100149.00;;;9.65;100.00
71774;BME280;59607;52.130;5.430;2023-04-24T06:00:06;100150.50;;;9.59;100.00
71774;BME280;59607;52.130;5.430;2023-04-24T06:02:34;100156.56;;;9.60;100.00
71774;BME280;59607;52.130;5.430;2023-04-24T06:05:01;100153.00;;;9.53;100.00
71774;BME280;59607;52.130;5.430;2023-04-24T06:07:31;100160.22;;;9.50;100.00
71774;BME280;59607;52.130;5.430;2023-04-24T06:09:57;100165.00;;;9.47;100.00
71774;BME280;59607;52.130;5.430;2023-04-24T06:12:25;100169.41;;;9.46;100.00
71774;BME280;59607;52.130;5.430;2023-04-24T06:15:02;100179.22;;;9.44;100.00
71774;BME280;59607;52.130;5.430;2023-04-24T06:17:30;100187.44;;;9.33;100.00
71774;BME280;59607;52.130;5.430;2023-04-24T06:19:59;100185.84;;;9.32;100.00
71774;BME280;59607;52.130;5.430;2023-04-24T06:22:38;100185.00;;;9.31;100.00
71774;BME280;59607;52.130;5.430;2023-04-24T06:25:08;100199.91;;;9.31;100.00
71774;BME280;59607;52.130;5.430;2023-04-24T06:27:35;100196.66;;;9.20;100.00
71774;BME280;59607;52.130;5.430;2023-04-24T06:30:02;100206.03;;;9.15;100.00
71774;BME280;59607;52.130;5.430;2023-04-24T06:32:36;100217.13;;;9.17;100.00
71774;BME280;59607;52.130;5.430;2023-04-24T06:35:08;100221.22;;;9.19;100.00
71774;BME280;59607;52.130;5.430;2023-04-24T06:37:40;100230.38;;;9.15;100.00
71774;BME280;59607;52.130;5.430;2023-04-24T06:40:15;100217.13;;;9.08;100.00
71774;BME280;59607;52.130;5.430;2023-04-24T06:42:42;100242.50;;;9.08;100.00
71774;BME280;59607;52.130;5.430;2023-04-24T06:45:12;100242.50;;;9.08;100.00
71774;BME280;59607;52.130;5.430;2023-04-24T06:47:41;100247.56;;;9.09;100.00
71774;BME280;59607;52.130;5.430;2023-04-24T06:50:10;100256.06;;;9.11;100.00
71774;BME280;59607;52.130;5.430;2023-04-24T06:52:43;100257.53;;;9.14;100.00
71774;BME280;59607;52.130;5.430;2023-04-24T06:55:10;100270.78;;;9.12;100.00
71774;BME280;59607;52.130;5.430;2023-04-24T06:57:40;100277.94;;;9.19;100.00
71774;BME280;59607;52.130;5.430;2023-04-24T07:00:07;100278.63;;;9.21;100.00
71774;BME280;59607;52.130;5.430;2023-04-24T07:02:35;100287.59;;;9.18;100.00
71774;BME280;59607;52.130;5.430;2023-04-24T07:05:06;100294.66;;;9.18;100.00
71774;BME280;59607;52.130;5.430;2023-04-24T07:07:36;100298.72;;;9.20;100.00
71774;BME280;59607;52.130;5.430;2023-04-24T07:10:05;100300.22;;;9.15;100.00
71774;BME280;59607;52.130;5.430;2023-04-24T07:12:38;100307.56;;;9.11;100.00
71774;BME280;59607;52.130;5.430;2023-04-24T07:15:11;100322.13;;;9.05;100.00
71774;BME280;59607;52.130;5.430;2023-04-24T07:17:40;100327.84;;;9.00;100.00
71774;BME280;59607;52.130;5.430;2023-04-24T07:20:13;100328.50;;;9.03;100.00
71774;BME280;59607;52.130;5.430;2023-04-24T07:22:48;100335.53;;;9.02;100.00
71774;BME280;59607;52.130;5.430;2023-04-24T07:25:17;100341.75;;;9.01;100.00
71774;BME280;59607;52.130;5.430;2023-04-24T07:27:46;100355.00;;;8.99;100.00
71774;BME280;59607;52.130;5.430;2023-04-24T07:30:17;100360.06;;;9.01;100.00
71774;BME280;59607;52.130;5.430;2023-04-24T07:32:47;100361.84;;;9.00;100.00
71774;BME280;59607;52.130;5.430;2023-04-24T07:35:13;100370.84;;;8.98;100.00
71774;BME280;59607;52.130;5.430;2023-04-24T07:37:40;100381.31;;;8.98;100.00
71774;BME280;59607;52.130;5.430;2023-04-24T07:40:15;100390.31;;;8.95;100.00
71774;BME280;59607;52.130;5.430;2023-04-24T07:42:44;100388.34;;;8.97;100.00
71774;BME280;59607;52.130;5.430;2023-04-24T07:45:14;100402.25;;;8.98;100.00
71774;BME280;59607;52.130;5.430;2023-04-24T07:47:46;100403.72;;;9.00;100.00
71774;BME280;59607;52.130;5.430;2023-04-24T07:50:16;100406.81;;;8.96;100.00
71774;BME280;59607;52.130;5.430;2023-04-24T07:52:43;100408.13;;;9.00;100.00
71774;BME280;59607;52.130;5.430;2023-04-24T07:55:12;100420.91;;;9.03;100.00
71774;BME280;59607;52.130;5.430;2023-04-24T07:57:42;100420.41;;;9.08;100.00
71774;BME280;59607;52.130;5.430;2023-04-24T08:00:14;100421.34;;;9.07;100.00
71774;BME280;59607;52.130;5.430;2023-04-24T08:02:42;100426.94;;;9.12;100.00
71774;BME280;59607;52.130;5.430;2023-04-24T08:05:09;100426.13;;;9.11;100.00
71774;BME280;59607;52.130;5.430;2023-04-24T08:07:35;100433.16;;;9.11;100.00
71774;BME280;59607;52.130;5.430;2023-04-24T08:10:10;100445.41;;;9.10;100.00
71774;BME280;59607;52.130;5.430;2023-04-24T08:12:39;100445.91;;;9.06;100.00
71774;BME280;59607;52.130;5.430;2023-04-24T08:15:11;100470.28;;;9.06;100.00
71774;BME280;59607;52.130;5.430;2023-04-24T08:17:38;100467.81;;;8.96;100.00
71774;BME280;59607;52.130;5.430;2023-04-24T08:20:09;100468.94;;;8.94;100.00
71774;BME280;59607;52.130;5.430;2023-04-24T08:22:45;100478.59;;;8.93;100.00
71774;BME280;59607;52.130;5.430;2023-04-24T08:25:15;100490.50;;;8.87;100.00
71774;BME280;59607;52.130;5.430;2023-04-24T08:27:41;100494.59;;;8.82;100.00
71774;BME280;59607;52.130;5.430;2023-04-24T08:30:14;100521.38;;;8.75;100.00
71774;BME280;59607;52.130;5.430;2023-04-24T08:32:48;100511.56;;;8.69;100.00
71774;BME280;59607;52.130;5.430;2023-04-24T08:35:17;100525.63;;;8.76;100.00
71774;BME280;59607;52.130;5.430;2023-04-24T08:37:52;100528.22;;;8.76;100.00
71774;BME280;59607;52.130;5.430;2023-04-24T08:40:27;100530.03;;;8.84;100.00
71774;BME280;59607;52.130;5.430;2023-04-24T08:42:56;100524.00;;;8.92;100.00
71774;BME280;59607;52.130;5.430;2023-04-24T08:45:29;100535.81;;;8.96;100.00
71774;BME280;59607;52.130;5.430;2023-04-24T08:47:57;100533.06;;;9.06;100.00
71774;BME280;59607;52.130;5.430;2023-04-24T08:50:45;100534.03;;;9.13;100.00
71774;BME280;59607;52.130;5.430;2023-04-24T08:53:18;100535.22;;;9.19;100.00
71774;BME280;59607;52.130;5.430;2023-04-24T08:55:48;100541.25;;;9.20;100.00
71774;BME280;59607;52.130;5.430;2023-04-24T08:58:16;100546.81;;;9.17;100.00
71774;BME280;59607;52.130;5.430;2023-04-24T09:00:44;100561.41;;;9.28;100.00
71774;BME280;59607;52.130;5.430;2023-04-24T09:03:18;100574.31;;;9.29;100.00
71774;BME280;59607;52.130;5.430;2023-04-24T09:05:47;100568.25;;;9.20;100.00
71774;BME280;59607;52.130;5.430;2023-04-24T09:08:20;100566.63;;;9.19;100.00
71774;BME280;59607;52.130;5.430;2023-04-24T09:10:48;100593.09;;;9.16;100.00
71774;BME280;59607;52.130;5.430;2023-04-24T09:13:25;100578.22;;;9.25;100.00
71774;BME280;59607;52.130;5.430;2023-04-24T09:15:52;100576.28;;;9.35;100.00
71774;BME280;59607;52.130;5.430;2023-04-24T09:18:21;100576.94;;;9.46;100.00
71774;BME280;59607;52.130;5.430;2023-04-24T09:21:08;100591.03;;;9.53;100.00
71774;BME280;59607;52.130;5.430;2023-04-24T09:23:35;100595.97;;;9.65;100.00
71774;BME280;59607;52.130;5.430;2023-04-24T09:26:05;100599.38;;;9.73;100.00
71774;BME280;59607;52.130;5.430;2023-04-24T09:31:15;100605.13;;;9.94;100.00
71774;BME280;59607;52.130;5.430;2023-04-24T09:34:07;100610.22;;;10.12;100.00
71774;BME280;59607;52.130;5.430;2023-04-24T09:36:41;100609.03;;;10.31;100.00
71774;BME280;59607;52.130;5.430;2023-04-24T09:39:13;100617.03;;;10.46;100.00
71774;BME280;59607;52.130;5.430;2023-04-24T09:44:22;100617.34;;;10.68;94.88
71774;BME280;59607;52.130;5.430;2023-04-24T09:49:24;100623.53;;;10.76;95.61
71774;BME280;59607;52.130;5.430;2023-04-24T09:51:51;100639.78;;;10.71;98.63
71774;BME280;59607;52.130;5.430;2023-04-24T09:54:20;100642.13;;;10.41;93.03
71774;BME280;59607;52.130;5.430;2023-04-24T09:56:54;100649.03;;;10.08;92.34
71774;BME280;59607;52.130;5.430;2023-04-24T09:59:30;100646.72;;;9.97;94.80
71774;BME280;59607;52.130;5.430;2023-04-24T10:01:56;100644.25;;;9.87;90.69
71774;BME280;59607;52.130;5.430;2023-04-24T10:04:28;100655.25;;;9.91;91.45
71774;BME280;59607;52.130;5.430;2023-04-24T10:06:57;100663.25;;;10.14;93.13
71774;BME280;59607;52.130;5.430;2023-04-24T10:09:27;100656.69;;;10.35;89.87
71774;BME280;59607;52.130;5.430;2023-04-24T10:11:56;100658.81;;;10.56;90.09
71774;BME280;59607;52.130;5.430;2023-04-24T10:14:24;100661.28;;;10.58;87.10
71774;BME280;59607;52.130;5.430;2023-04-24T10:17:06;100666.34;;;10.59;86.27
71774;BME280;59607;52.130;5.430;2023-04-24T10:19:37;100668.00;;;10.60;89.17
71774;BME280;59607;52.130;5.430;2023-04-24T10:22:06;100661.59;;;10.63;87.93
71774;BME280;59607;52.130;5.430;2023-04-24T10:24:34;100674.72;;;10.55;87.44
71774;BME280;59607;52.130;5.430;2023-04-24T10:27:06;100675.56;;;10.55;85.98
71774;BME280;59607;52.130;5.430;2023-04-24T10:29:38;100671.59;;;10.59;86.17
71774;BME280;59607;52.130;5.430;2023-04-24T10:32:08;100676.69;;;10.61;83.01
71774;BME280;59607;52.130;5.430;2023-04-24T10:34:35;100678.44;;;10.77;82.57
71774;BME280;59607;52.130;5.430;2023-04-24T10:37:05;100679.91;;;10.96;81.99
71774;BME280;59607;52.130;5.430;2023-04-24T10:39:32;100679.63;;;11.15;81.49
71774;BME280;59607;52.130;5.430;2023-04-24T10:41:59;100675.53;;;11.20;81.18
71774;BME280;59607;52.130;5.430;2023-04-24T10:44:36;100678.06;;;11.37;80.12
71774;BME280;59607;52.130;5.430;2023-04-24T10:47:03;100680.91;;;11.59;78.78
71774;BME280;59607;52.130;5.430;2023-04-24T10:49:33;100694.09;;;11.51;76.03
71774;BME280;59607;52.130;5.430;2023-04-24T10:52:03;100691.88;;;11.31;77.85
71774;BME280;59607;52.130;5.430;2023-04-24T10:54:36;100706.25;;;11.03;81.46
71774;BME280;59607;52.130;5.430;2023-04-24T11:02:52;100702.41;;;10.74;82.86
71774;BME280;59607;52.130;5.430;2023-04-24T11:05:49;100712.72;;;10.76;85.64
71774;BME280;59607;52.130;5.430;2023-04-24T11:08:23;100712.78;;;10.59;87.89
71774;BME280;59607;52.130;5.430;2023-04-24T11:11:13;100713.28;;;10.54;86.03
71774;BME280;59607;52.130;5.430;2023-04-24T11:16:54;100734.03;;;10.14;87.55
71774;BME280;59607;52.130;5.430;2023-04-24T11:19:25;100741.25;;;10.12;88.25
71774;BME280;59607;52.130;5.430;2023-04-24T11:22:02;100754.19;;;10.14;90.37
71774;BME280;59607;52.130;5.430;2023-04-24T11:24:48;100749.41;;;10.17;93.70
71774;BME280;59607;52.130;5.430;2023-04-24T11:27:21;100760.41;;;10.21;92.18
71774;BME280;59607;52.130;5.430;2023-04-24T11:30:01;100756.34;;;10.27;90.19
71774;BME280;59607;52.130;5.430;2023-04-24T11:32:34;100752.09;;;10.51;89.49
71774;BME280;59607;52.130;5.430;2023-04-24T11:37:47;100746.09;;;11.15;89.66
71774;BME280;59607;52.130;5.430;2023-04-24T11:40:36;100747.88;;;11.95;86.30
71774;BME280;59607;52.130;5.430;2023-04-24T11:43:18;100750.53;;;11.87;83.73
71774;BME280;59607;52.130;5.430;2023-04-24T11:45:51;100758.09;;;11.58;86.22
71774;BME280;59607;52.130;5.430;2023-04-24T11:48:19;100754.69;;;11.41;82.57
71774;BME280;59607;52.130;5.430;2023-04-24T11:50:55;100765.75;;;11.28;83.95
71774;BME280;59607;52.130;5.430;2023-04-24T11:53:25;100757.72;;;11.69;81.22
71774;BME280;59607;52.130;5.430;2023-04-24T11:56:03;100763.50;;;12.20;80.69
71774;BME280;59607;52.130;5.430;2023-04-24T11:58:38;100765.84;;;12.38;76.22
71774;BME280;59607;52.130;5.430;2023-04-24T12:01:05;100770.63;;;12.11;72.40
71774;BME280;59607;52.130;5.430;2023-04-24T12:03:41;100775.06;;;12.11;73.61
71774;BME280;59607;52.130;5.430;2023-04-24T12:06:22;100776.69;;;12.58;74.64
71774;BME280;59607;52.130;5.430;2023-04-24T12:08:52;100772.84;;;12.46;73.26
71774;BME280;59607;52.130;5.430;2023-04-24T12:11:58;100791.06;;;11.92;75.36
71774;BME280;59607;52.130;5.430;2023-04-24T12:14:29;100786.69;;;11.53;74.07
71774;BME280;59607;52.130;5.430;2023-04-24T12:16:55;100788.34;;;11.37;75.01
71774;BME280;59607;52.130;5.430;2023-04-24T12:19:29;100800.69;;;11.28;72.87
71774;BME280;59607;52.130;5.430;2023-04-24T12:22:03;100796.13;;;11.14;74.04
71774;BME280;59607;52.130;5.430;2023-04-24T12:24:35;100804.53;;;11.01;75.05
71774;BME280;59607;52.130;5.430;2023-04-24T12:27:01;100810.13;;;10.89;73.92
71774;BME280;59607;52.130;5.430;2023-04-24T12:29:31;100811.28;;;10.78;77.16
71774;BME280;59607;52.130;5.430;2023-04-24T12:32:00;100819.66;;;10.73;77.44
71774;BME280;59607;52.130;5.430;2023-04-24T12:34:33;100814.41;;;10.82;78.05
71774;BME280;59607;52.130;5.430;2023-04-24T12:37:10;100812.03;;;11.29;76.33
71774;BME280;59607;52.130;5.430;2023-04-24T12:39:58;100820.00;;;11.44;75.22
71774;BME280;59607;52.130;5.430;2023-04-24T12:42:30;100827.09;;;11.35;72.15
71774;BME280;59607;52.130;5.430;2023-04-24T12:45:00;100823.41;;;11.04;72.00
71774;BME280;59607;52.130;5.430;2023-04-24T12:47:30;100826.84;;;10.96;71.34
71774;BME280;59607;52.130;5.430;2023-04-24T12:49:58;100843.22;;;10.98;70.68
71774;BME280;59607;52.130;5.430;2023-04-24T12:52:29;100839.31;;;10.94;71.74
71774;BME280;59607;52.130;5.430;2023-04-24T12:54:57;100854.38;;;10.84;71.72
71774;BME280;59607;52.130;5.430;2023-04-24T12:57:32;100848.00;;;10.86;73.08
71774;BME280;59607;52.130;5.430;2023-04-24T12:59:58;100849.16;;;10.67;72.64
71774;BME280;59607;52.130;5.430;2023-04-24T13:02:36;100854.38;;;10.51;76.85
71774;BME280;59607;52.130;5.430;2023-04-24T13:05:04;100863.66;;;10.36;80.15
71774;BME280;59607;52.130;5.430;2023-04-24T13:07:37;100872.97;;;10.22;82.50
71774;BME280;59607;52.130;5.430;2023-04-24T13:10:03;100869.03;;;10.18;82.42
71774;BME280;59607;52.130;5.430;2023-04-24T13:12:34;100886.91;;;10.23;85.02
71774;BME280;59607;52.130;5.430;2023-04-24T13:15:01;100878.09;;;10.41;84.24
71774;BME280;59607;52.130;5.430;2023-04-24T13:17:27;100866.81;;;10.48;82.25
71774;BME280;59607;52.130;5.430;2023-04-24T13:19:55;100880.28;;;10.62;83.23
71774;BME280;59607;52.130;5.430;2023-04-24T13:22:25;100852.41;;;10.69;78.26
71774;BME280;59607;52.130;5.430;2023-04-24T13:24:51;100873.56;;;10.68;78.45
71774;BME280;59607;52.130;5.430;2023-04-24T13:27:18;100868.69;;;10.90;78.30
71774;BME280;59607;52.130;5.430;2023-04-24T13:29:45;100873.38;;;11.36;76.41